createdAt,value
2022-09-02T00:01:57.736Z,18.28
2022-09-02T00:04:28.264Z,18.19
2022-09-02T00:06:56.899Z,18.09
2022-09-02T00:09:28.373Z,18.03
2022-09-02T00:11:58.217Z,17.96
2022-09-02T00:14:30.042Z,17.92
2022-09-02T00:17:01.381Z,17.79
2022-09-02T00:19:32.213Z,17.72
2022-09-02T00:22:02.728Z,17.57
2022-09-02T00:24:31.483Z,17.43
2022-09-02T00:27:00.334Z,17.46
2022-09-02T00:29:29.701Z,17.34
2022-09-02T00:32:00.276Z,17.39
2022-09-02T00:34:29.314Z,17.31
2022-09-02T00:36:57.984Z,17.19
2022-09-02T00:39:27.870Z,17.07
2022-09-02T00:41:56.463Z,17.00
2022-09-02T00:44:25.555Z,16.94
2022-09-02T00:46:54.683Z,16.89
2022-09-02T00:49:27.801Z,16.84
2022-09-02T00:52:01.378Z,16.76
2022-09-02T00:54:33.692Z,16.68
2022-09-02T00:57:04.892Z,16.58
2022-09-02T00:59:45.319Z,16.61
2022-09-02T01:02:15.290Z,16.57
2022-09-02T01:04:46.832Z,16.51
2022-09-02T01:07:16.582Z,16.45
2022-09-02T01:09:45.528Z,16.37
2022-09-02T01:12:15.438Z,16.38
2022-09-02T01:14:45.040Z,16.26
2022-09-02T01:17:14.053Z,16.20
2022-09-02T01:19:49.349Z,16.21
2022-09-02T01:22:23.295Z,16.15
2022-09-02T01:24:53.234Z,16.04
2022-09-02T01:27:25.074Z,15.94
2022-09-02T01:29:55.233Z,15.85
2022-09-02T01:32:24.651Z,15.76
2022-09-02T01:34:53.329Z,15.76
2022-09-02T01:37:23.598Z,15.63
2022-09-02T01:39:53.236Z,15.46
2022-09-02T01:42:23.303Z,15.44
2022-09-02T01:44:52.633Z,15.40
2022-09-02T01:47:25.374Z,15.22
2022-09-02T01:49:55.452Z,15.26
2022-09-02T01:52:28.402Z,15.26
2022-09-02T01:54:57.716Z,15.30
2022-09-02T01:57:26.415Z,15.33
2022-09-02T01:59:57.095Z,15.33
2022-09-02T02:02:26.141Z,15.35
2022-09-02T02:04:55.324Z,15.22
2022-09-02T02:07:26.264Z,15.19
2022-09-02T02:09:55.125Z,15.11
2022-09-02T02:12:23.994Z,15.13
2022-09-02T02:14:52.824Z,15.20
2022-09-02T02:17:24.082Z,15.22
2022-09-02T02:19:52.791Z,15.15
2022-09-02T02:22:21.612Z,15.03
2022-09-02T02:24:51.783Z,14.86
2022-09-02T02:27:20.742Z,14.91
2022-09-02T02:29:49.554Z,14.90
2022-09-02T02:32:19.451Z,14.76
2022-09-02T02:34:49.645Z,14.90
2022-09-02T02:37:23.369Z,14.90
2022-09-02T02:39:56.073Z,14.90
2022-09-02T02:42:25.386Z,14.93
2022-09-02T02:44:54.082Z,14.96
2022-09-02T02:47:22.933Z,15.01
2022-09-02T02:49:51.661Z,15.08
2022-09-02T02:52:20.803Z,15.11
2022-09-02T02:54:49.932Z,15.10
2022-09-02T02:57:20.037Z,15.22
2022-09-02T02:59:48.805Z,15.32
2022-09-02T03:02:17.860Z,15.45
2022-09-02T03:04:46.635Z,15.51
2022-09-02T03:07:15.352Z,15.59
2022-09-02T03:09:44.454Z,15.65
2022-09-02T03:12:17.513Z,15.67
2022-09-02T03:14:49.605Z,15.65
2022-09-02T03:17:20.368Z,15.62
2022-09-02T03:19:51.141Z,15.57
2022-09-02T03:22:20.152Z,15.57
2022-09-02T03:24:49.004Z,15.59
2022-09-02T03:27:17.752Z,15.60
2022-09-02T03:29:47.831Z,15.62
2022-09-02T03:32:16.733Z,15.65
2022-09-02T03:34:46.696Z,15.55
2022-09-02T03:37:15.596Z,15.48
2022-09-02T03:39:44.256Z,15.48
2022-09-02T03:42:15.119Z,15.43
2022-09-02T03:44:52.693Z,15.31
2022-09-02T03:47:21.921Z,15.32
2022-09-02T03:49:55.706Z,15.23
2022-09-02T03:52:26.344Z,15.12
2022-09-02T03:54:55.133Z,15.05
2022-09-02T03:57:26.253Z,15.04
2022-09-02T03:59:56.752Z,15.06
2022-09-02T04:02:26.365Z,15.16
2022-09-02T04:04:55.088Z,15.25
2022-09-02T04:07:24.252Z,15.32
2022-09-02T04:09:55.404Z,15.43
2022-09-02T04:12:24.445Z,15.53
2022-09-02T04:15:03.005Z,15.61
2022-09-02T04:17:31.744Z,15.69
2022-09-02T04:20:00.484Z,15.71
2022-09-02T04:22:29.252Z,15.75
2022-09-02T04:24:58.152Z,15.79
2022-09-02T04:27:26.902Z,15.87
2022-09-02T04:29:57.213Z,15.88
2022-09-02T04:32:28.229Z,15.90
2022-09-02T04:34:57.134Z,15.98
2022-09-02T04:37:26.992Z,16.06
2022-09-02T04:39:58.315Z,16.14
2022-09-02T04:42:27.931Z,16.17
2022-09-02T04:44:58.511Z,16.18
2022-09-02T04:47:30.111Z,16.21
2022-09-02T04:49:59.662Z,16.30
2022-09-02T04:52:28.843Z,16.35
2022-09-02T04:54:58.273Z,16.44
2022-09-02T04:57:27.173Z,16.50
2022-09-02T04:59:57.313Z,16.57
2022-09-02T05:02:26.217Z,16.64
2022-09-02T05:04:57.062Z,16.70
2022-09-02T05:07:31.411Z,16.77
2022-09-02T05:10:01.521Z,16.85
2022-09-02T05:12:35.641Z,16.91
2022-09-02T05:15:05.892Z,16.93
2022-09-02T05:17:37.280Z,16.95
2022-09-02T05:20:11.485Z,17.02
2022-09-02T05:22:41.452Z,17.06
2022-09-02T05:25:11.982Z,17.10
2022-09-02T05:27:40.894Z,17.13
2022-09-02T05:30:10.762Z,17.14
2022-09-02T05:32:41.548Z,17.17
2022-09-02T05:35:12.954Z,17.18
2022-09-02T05:37:41.685Z,17.23
2022-09-02T05:40:14.874Z,17.26
2022-09-02T05:42:45.298Z,17.20
2022-09-02T05:45:18.744Z,17.22
2022-09-02T05:47:49.476Z,17.19
2022-09-02T05:50:20.805Z,17.19
2022-09-02T05:52:52.440Z,17.14
2022-09-02T05:55:22.846Z,17.27
2022-09-02T05:57:51.787Z,17.29
2022-09-02T06:00:20.439Z,17.28
2022-09-02T06:02:59.294Z,17.31
2022-09-02T06:05:37.553Z,17.34
2022-09-02T06:08:13.110Z,17.37
2022-09-02T06:10:44.985Z,17.34
2022-09-02T06:13:21.839Z,17.39
2022-09-02T06:15:52.815Z,17.39
2022-09-02T06:18:26.686Z,17.42
2022-09-02T06:20:58.812Z,17.47
2022-09-02T06:23:32.584Z,17.54
2022-09-02T06:26:03.948Z,17.54
2022-09-02T06:28:32.923Z,17.63
2022-09-02T06:31:07.644Z,17.64
2022-09-02T06:33:36.459Z,17.60
2022-09-02T06:36:10.844Z,17.74
2022-09-02T06:38:45.192Z,17.76
2022-09-02T06:41:19.027Z,17.81
2022-09-02T06:43:48.176Z,17.83
2022-09-02T06:46:25.796Z,17.90
2022-09-02T06:48:57.634Z,17.93
2022-09-02T06:51:30.953Z,17.81
2022-09-02T06:54:02.015Z,18.12
2022-09-02T06:56:34.860Z,18.15
2022-09-02T06:59:05.176Z,18.19
2022-09-02T07:01:45.890Z,18.26
2022-09-02T07:04:28.602Z,18.30
2022-09-02T07:06:58.659Z,18.35
2022-09-02T07:09:32.388Z,18.34
2022-09-02T07:12:08.789Z,18.42
2022-09-02T07:14:45.599Z,18.42
2022-09-02T07:17:18.191Z,18.47
2022-09-02T07:19:51.542Z,18.54
2022-09-02T07:22:22.013Z,18.73
2022-09-02T07:24:50.631Z,18.97
2022-09-02T07:27:20.473Z,19.14
2022-09-02T07:29:51.335Z,19.32
2022-09-02T07:32:22.094Z,19.37
2022-09-02T07:34:51.234Z,19.51
2022-09-02T07:37:21.433Z,19.64
2022-09-02T07:39:55.124Z,19.67
2022-09-02T07:42:24.880Z,19.72
2022-09-02T07:44:53.667Z,19.87
2022-09-02T07:47:23.073Z,20.02
2022-09-02T07:52:43.852Z,20.15
2022-09-02T07:55:15.184Z,20.17
2022-09-02T07:57:46.721Z,20.30
2022-09-02T08:00:18.363Z,20.34
2022-09-02T08:02:51.910Z,20.38
2022-09-02T08:05:28.004Z,20.45
2022-09-02T08:07:58.238Z,20.57
2022-09-02T08:10:29.834Z,20.61
2022-09-02T08:13:01.373Z,20.68
2022-09-02T08:15:31.786Z,20.80
2022-09-02T08:18:00.862Z,20.81
2022-09-02T08:20:30.858Z,20.84
2022-09-02T08:23:10.786Z,20.83
2022-09-02T08:25:41.054Z,20.87
2022-09-02T08:28:09.680Z,20.95
2022-09-02T08:30:38.384Z,21.08
2022-09-02T08:33:07.501Z,21.16
2022-09-02T08:35:36.234Z,21.34
2022-09-02T08:38:06.642Z,21.41
2022-09-02T08:40:39.511Z,21.49
2022-09-02T08:43:26.262Z,21.56
2022-09-02T08:45:56.743Z,21.56
2022-09-02T08:48:36.173Z,21.62
2022-09-02T08:51:10.279Z,21.75
2022-09-02T08:53:51.473Z,21.82
2022-09-02T08:56:20.642Z,21.96
2022-09-02T08:58:56.422Z,22.02
2022-09-02T09:01:38.173Z,22.01
2022-09-02T09:04:20.114Z,22.08
2022-09-02T09:07:14.753Z,22.11
2022-09-02T09:10:04.422Z,22.10
2022-09-02T09:12:56.384Z,22.20
2022-09-02T09:15:35.931Z,22.41
2022-09-02T09:18:06.856Z,22.57
2022-09-02T09:20:39.766Z,22.68
2022-09-02T09:23:34.120Z,22.73
2022-09-02T09:26:10.229Z,22.75
2022-09-02T09:28:43.793Z,22.83
2022-09-02T09:31:16.031Z,22.90
2022-09-02T09:33:58.855Z,23.03
2022-09-02T09:36:45.905Z,23.09
2022-09-02T09:39:20.688Z,23.36
2022-09-02T09:41:51.985Z,23.56
2022-09-02T09:44:39.985Z,23.60
2022-09-02T09:47:14.695Z,23.67
2022-09-02T09:49:46.330Z,23.73
2022-09-02T09:52:24.895Z,23.89
2022-09-02T09:55:11.596Z,23.97
2022-09-02T09:57:46.010Z,24.13
2022-09-02T10:00:23.158Z,24.13
2022-09-02T10:02:53.848Z,24.05
2022-09-02T10:05:36.637Z,24.02
2022-09-02T10:08:15.270Z,24.05
2022-09-02T10:10:58.677Z,24.28
2022-09-02T10:13:31.301Z,24.46
2022-09-02T10:16:24.869Z,24.67
2022-09-02T10:18:57.796Z,24.79
2022-09-02T10:21:44.991Z,24.63
2022-09-02T10:24:34.688Z,24.45
2022-09-02T10:27:10.300Z,24.48
2022-09-02T10:29:57.389Z,24.60
2022-09-02T10:32:46.947Z,24.70
2022-09-02T10:35:22.839Z,24.90
2022-09-02T10:38:05.338Z,25.18
2022-09-02T10:40:42.249Z,25.26
2022-09-02T10:43:24.325Z,25.22
2022-09-02T10:45:59.799Z,25.28
2022-09-02T10:48:42.197Z,25.34
2022-09-02T10:51:22.737Z,25.01
2022-09-02T10:54:03.620Z,24.44
2022-09-02T10:56:40.550Z,24.23
2022-09-02T10:59:14.895Z,24.41
2022-09-02T11:01:53.648Z,24.39
2022-09-02T11:04:28.317Z,24.82
2022-09-02T11:07:03.330Z,25.15
2022-09-02T11:09:38.178Z,24.93
2022-09-02T11:12:12.461Z,24.73
2022-09-02T11:14:54.939Z,24.81
2022-09-02T11:17:29.867Z,24.74
2022-09-02T11:20:05.908Z,24.60
2022-09-02T11:22:42.777Z,24.37
2022-09-02T11:25:17.476Z,24.07
2022-09-02T11:27:54.170Z,23.93
2022-09-02T11:30:26.896Z,23.92
2022-09-02T11:33:03.850Z,23.82
2022-09-02T11:35:39.072Z,23.75
2022-09-02T11:38:21.547Z,23.79
2022-09-02T11:41:36.752Z,23.72
2022-09-02T11:44:52.257Z,24.07
2022-09-02T11:47:40.090Z,24.57
2022-09-02T11:50:37.315Z,25.07
2022-09-02T11:53:21.387Z,25.44
2022-09-02T11:55:56.628Z,25.68
2022-09-02T11:58:33.592Z,25.97
2022-09-02T12:01:08.129Z,26.17
2022-09-02T12:04:16.204Z,26.24
2022-09-02T12:06:38.607Z,26.12
2022-09-02T12:09:11.448Z,25.92
2022-09-02T12:11:55.282Z,25.47
2022-09-02T12:14:45.649Z,25.07
2022-09-02T12:17:37.648Z,24.82
2022-09-02T12:20:09.761Z,24.59
2022-09-02T12:22:43.467Z,24.45
2022-09-02T12:25:35.132Z,24.51
2022-09-02T12:28:25.347Z,24.83
2022-09-02T12:31:13.202Z,24.85
2022-09-02T12:33:44.341Z,24.56
2022-09-02T12:36:47.558Z,24.40
2022-09-02T12:39:37.911Z,24.65
2022-09-02T12:42:26.046Z,24.91
2022-09-02T12:45:04.757Z,25.20
2022-09-02T12:47:45.544Z,25.37
2022-09-02T12:50:23.629Z,25.59
2022-09-02T12:52:53.889Z,25.69
2022-09-02T12:55:27.665Z,25.95
2022-09-02T12:58:10.893Z,25.97
2022-09-02T13:00:54.553Z,25.80
2022-09-02T13:03:48.176Z,25.37
2022-09-02T13:06:27.082Z,24.94
2022-09-02T13:09:26.518Z,24.96
2022-09-02T13:12:12.976Z,25.21
2022-09-02T13:15:00.374Z,25.26
2022-09-02T13:17:48.913Z,25.40
2022-09-02T13:20:42.786Z,25.67
2022-09-02T13:23:35.244Z,25.84
2022-09-02T13:26:48.358Z,25.63
2022-09-02T13:29:50.093Z,25.53
2022-09-02T13:32:26.773Z,25.71
2022-09-02T13:34:59.426Z,25.79
2022-09-02T13:37:29.464Z,25.57
2022-09-02T13:39:58.506Z,25.27
2022-09-02T13:42:32.926Z,25.02
2022-09-02T13:45:14.515Z,24.86
2022-09-02T13:47:46.901Z,24.73
2022-09-02T13:50:19.878Z,24.62
2022-09-02T13:53:45.805Z,24.81
2022-09-02T13:55:49.462Z,25.16
2022-09-02T13:58:34.432Z,25.26
2022-09-02T14:01:20.191Z,25.28
2022-09-02T14:03:52.477Z,25.33
2022-09-02T14:06:25.123Z,25.36
2022-09-02T14:08:58.875Z,25.37
2022-09-02T14:11:29.396Z,25.39
2022-09-02T14:13:58.953Z,25.35
2022-09-02T14:16:34.667Z,25.20
2022-09-02T14:19:24.604Z,25.10
2022-09-02T14:21:56.325Z,25.16
2022-09-02T14:24:27.599Z,25.31
2022-09-02T14:26:57.585Z,25.40
2022-09-02T14:29:27.768Z,25.60
2022-09-02T14:32:13.453Z,25.37
2022-09-02T14:34:44.756Z,25.31
2022-09-02T14:37:24.632Z,25.19
2022-09-02T14:39:54.961Z,25.21
2022-09-02T14:42:26.260Z,25.22
2022-09-02T14:44:59.804Z,25.25
2022-09-02T14:47:29.307Z,25.24
2022-09-02T14:49:59.440Z,25.28
2022-09-02T14:52:31.454Z,25.14
2022-09-02T14:55:00.788Z,25.27
2022-09-02T14:57:33.172Z,25.37
2022-09-02T15:00:05.999Z,25.51
2022-09-02T15:02:38.929Z,25.42
2022-09-02T15:05:11.847Z,25.43
2022-09-02T15:07:40.637Z,25.42
2022-09-02T15:10:10.566Z,25.43
2022-09-02T15:12:45.787Z,25.45
2022-09-02T15:15:14.582Z,25.43
2022-09-02T15:17:43.401Z,25.35
2022-09-02T15:20:13.693Z,25.27
2022-09-02T15:22:43.601Z,25.09
2022-09-02T15:25:12.500Z,24.90
2022-09-02T15:27:41.361Z,24.93
2022-09-02T15:30:11.384Z,24.92
2022-09-02T15:32:40.212Z,24.92
2022-09-02T15:35:10.382Z,24.89
2022-09-02T15:37:40.552Z,24.81
2022-09-02T15:40:10.848Z,24.64
2022-09-02T15:42:40.252Z,24.42
2022-09-02T15:45:10.323Z,24.19
2022-09-02T15:47:39.621Z,24.02
2022-09-02T15:50:08.869Z,23.84
2022-09-02T15:52:39.942Z,23.64
2022-09-02T15:55:09.841Z,23.49
2022-09-02T15:57:38.333Z,23.46
2022-09-02T16:00:10.675Z,23.45
2022-09-02T16:02:40.320Z,23.44
2022-09-02T16:05:12.353Z,23.37
2022-09-02T16:07:42.472Z,23.18
2022-09-02T16:10:11.947Z,23.08
2022-09-02T16:12:40.463Z,22.80
2022-09-02T16:15:10.313Z,22.68
2022-09-02T16:17:38.883Z,22.73
2022-09-02T16:20:08.189Z,22.77
2022-09-02T16:22:37.688Z,22.73
2022-09-02T16:25:08.763Z,22.65
2022-09-02T16:27:47.374Z,22.56
2022-09-02T16:30:16.390Z,22.41
2022-09-02T16:32:46.723Z,22.29
2022-09-02T16:35:15.621Z,22.20
2022-09-02T16:37:45.085Z,22.08
2022-09-02T16:40:21.832Z,21.95
2022-09-02T16:42:51.702Z,21.88
2022-09-02T16:45:20.253Z,21.76
2022-09-02T16:47:49.026Z,21.62
2022-09-02T16:50:17.842Z,21.46
2022-09-02T16:52:46.322Z,21.38
2022-09-02T16:55:19.093Z,21.34
2022-09-02T16:57:47.738Z,21.25
2022-09-02T17:00:17.906Z,21.24
2022-09-02T17:02:46.551Z,21.11
2022-09-02T17:05:17.854Z,20.92
2022-09-02T17:07:47.503Z,20.79
2022-09-02T17:10:17.666Z,20.64
2022-09-02T17:12:46.363Z,20.62
2022-09-02T17:15:15.055Z,20.54
2022-09-02T17:17:44.328Z,20.48
2022-09-02T17:20:13.357Z,20.42
2022-09-02T17:22:42.537Z,20.39
2022-09-02T17:25:11.605Z,20.34
2022-09-02T17:27:42.205Z,20.25
2022-09-02T17:30:12.561Z,20.21
2022-09-02T17:32:42.857Z,20.13
2022-09-02T17:35:13.196Z,20.07
2022-09-02T17:37:42.019Z,19.99
2022-09-02T17:40:34.523Z,19.98
2022-09-02T17:43:03.857Z,20.04
2022-09-02T17:45:32.584Z,20.05
2022-09-02T17:48:32.007Z,19.99
2022-09-02T17:50:51.292Z,19.93
2022-09-02T17:53:19.826Z,19.90
2022-09-02T17:55:51.775Z,19.79
2022-09-02T17:58:23.224Z,19.73
2022-09-02T18:01:00.776Z,19.69
2022-09-02T18:03:42.565Z,19.66
2022-09-02T18:06:15.027Z,19.47
2022-09-02T18:08:53.786Z,19.35
2022-09-02T18:11:23.379Z,19.29
2022-09-02T18:14:05.947Z,19.23
2022-09-02T18:16:40.928Z,19.21
2022-09-02T18:19:19.925Z,19.12
2022-09-02T18:22:00.007Z,19.10
2022-09-02T18:24:44.287Z,19.09
2022-09-02T18:27:21.297Z,19.07
2022-09-02T18:30:03.651Z,18.94
2022-09-02T18:32:48.936Z,18.78
2022-09-02T18:35:27.061Z,18.63
2022-09-02T18:38:07.947Z,18.55
2022-09-02T18:40:45.466Z,18.56
2022-09-02T18:43:23.569Z,18.55
2022-09-02T18:45:55.622Z,18.50
2022-09-02T18:48:29.448Z,18.54
2022-09-02T18:51:02.097Z,18.52
2022-09-02T18:53:33.638Z,18.48
2022-09-02T18:56:07.943Z,18.41
2022-09-02T18:58:43.914Z,18.37
2022-09-02T19:01:20.868Z,18.34
2022-09-02T19:03:50.922Z,18.34
2022-09-02T19:06:21.973Z,18.29
2022-09-02T19:08:57.991Z,18.26
2022-09-02T19:11:27.614Z,18.21
2022-09-02T19:14:01.333Z,18.14
2022-09-02T19:16:35.277Z,18.06
2022-09-02T19:19:04.520Z,18.00
2022-09-02T19:21:37.487Z,17.98
2022-09-02T19:24:10.345Z,17.96
2022-09-02T19:26:40.946Z,17.97
2022-09-02T19:29:13.453Z,17.93
2022-09-02T19:31:47.301Z,17.87
2022-09-02T19:34:17.969Z,17.83
2022-09-02T19:36:50.259Z,17.85
2022-09-02T19:39:19.322Z,17.85
2022-09-02T19:41:50.436Z,17.85
2022-09-02T19:44:19.548Z,17.87
2022-09-02T19:49:39.019Z,17.87
2022-09-02T19:52:08.226Z,17.85
2022-09-02T19:54:37.828Z,17.85
2022-09-02T19:57:06.948Z,17.87
2022-09-02T19:59:35.805Z,17.87
2022-09-02T20:02:06.866Z,17.78
2022-09-02T20:04:35.827Z,17.83
2022-09-02T20:07:04.826Z,17.84
2022-09-02T20:09:34.218Z,17.81
2022-09-02T20:12:02.978Z,17.77
2022-09-02T20:14:31.737Z,17.76
2022-09-02T20:17:03.725Z,17.77
2022-09-02T20:19:34.979Z,17.77
2022-09-02T20:22:05.315Z,17.74
2022-09-02T20:24:36.359Z,17.71
2022-09-02T20:27:17.779Z,17.60
2022-09-02T20:30:01.017Z,17.47
2022-09-02T20:32:45.219Z,17.38
2022-09-02T20:35:35.323Z,17.29
2022-09-02T20:38:16.958Z,17.31
2022-09-02T20:40:58.155Z,17.29
2022-09-02T20:43:53.817Z,17.29
2022-09-02T20:46:35.863Z,17.28
2022-09-02T20:49:23.675Z,17.35
2022-09-02T20:51:59.539Z,17.33
2022-09-02T20:54:39.017Z,17.34
2022-09-02T20:57:23.690Z,17.35
2022-09-02T21:00:03.425Z,17.32
2022-09-02T21:02:43.759Z,17.32
2022-09-02T21:05:22.248Z,17.30
2022-09-02T21:08:01.579Z,17.24
2022-09-02T21:10:34.606Z,17.18
2022-09-02T21:13:12.050Z,17.01
2022-09-02T21:15:46.187Z,16.90
2022-09-02T21:18:21.991Z,16.83
2022-09-02T21:20:57.436Z,16.76
2022-09-02T21:23:33.765Z,16.69
2022-09-02T21:26:16.167Z,16.65
2022-09-02T21:28:50.869Z,16.60
2022-09-02T21:31:29.700Z,16.60
2022-09-02T21:34:06.148Z,16.62
2022-09-02T21:36:37.290Z,16.67
2022-09-02T21:39:13.876Z,16.74
2022-09-02T21:41:46.586Z,16.79
2022-09-02T21:44:24.809Z,16.84
2022-09-02T21:47:01.764Z,16.90
2022-09-02T21:49:48.635Z,16.94
2022-09-02T21:52:31.097Z,16.91
2022-09-02T21:55:10.515Z,16.89
2022-09-02T21:57:55.534Z,16.84
2022-09-02T22:00:24.796Z,16.80
2022-09-02T22:03:03.218Z,16.79
2022-09-02T22:05:49.028Z,16.73
2022-09-02T22:08:29.237Z,16.65
2022-09-02T22:11:08.227Z,16.58
2022-09-02T22:13:37.990Z,16.50
2022-09-02T22:16:18.335Z,16.42
2022-09-02T22:18:54.490Z,16.36
2022-09-02T22:21:30.629Z,16.32
2022-09-02T22:23:59.670Z,16.33
2022-09-02T22:26:38.380Z,16.24
2022-09-02T22:29:17.697Z,16.25
2022-09-02T22:31:51.461Z,16.32
2022-09-02T22:34:24.128Z,16.32
2022-09-02T22:36:58.661Z,16.15
2022-09-02T22:39:35.529Z,16.05
2022-09-02T22:42:16.229Z,16.01
2022-09-02T22:45:00.338Z,15.97
2022-09-02T22:47:40.091Z,15.92
2022-09-02T22:50:20.421Z,15.96
2022-09-02T22:52:55.819Z,16.03
2022-09-02T22:55:47.102Z,16.05
2022-09-02T22:58:38.903Z,16.08
2022-09-02T23:01:19.968Z,16.07
2022-09-02T23:04:02.907Z,16.07
2022-09-02T23:06:33.207Z,16.05
2022-09-02T23:09:08.763Z,16.06
2022-09-02T23:11:44.632Z,15.98
2022-09-02T23:14:27.012Z,15.95
2022-09-02T23:17:34.879Z,15.91
2022-09-02T23:20:12.444Z,15.92
2022-09-02T23:23:04.997Z,15.84
2022-09-02T23:25:43.943Z,15.64
2022-09-02T23:28:17.264Z,15.42
2022-09-02T23:30:55.572Z,15.24
2022-09-02T23:33:35.674Z,14.98
2022-09-02T23:36:14.810Z,14.98
2022-09-02T23:38:58.174Z,14.86
2022-09-02T23:41:28.042Z,14.82
2022-09-02T23:43:57.451Z,14.84
2022-09-02T23:46:43.291Z,14.80
2022-09-02T23:49:23.210Z,14.57
2022-09-02T23:52:00.117Z,14.58
2022-09-02T23:54:50.925Z,14.60
2022-09-02T23:57:36.494Z,14.51
